createdAt,value
2018-08-03T00:00:11.434Z,53.58
2018-08-03T00:05:15.018Z,54.41
2018-08-03T00:10:18.578Z,54.27
2018-08-03T00:15:22.075Z,53.76
2018-08-03T00:20:25.705Z,53.83
2018-08-03T00:25:29.303Z,54.00
2018-08-03T00:30:32.987Z,55.20
2018-08-03T00:35:36.503Z,54.64
2018-08-03T00:40:40.057Z,55.21
2018-08-03T00:45:43.568Z,55.12
2018-08-03T00:50:48.461Z,56.18
2018-08-03T00:55:52.220Z,56.70
2018-08-03T01:00:55.857Z,56.14
2018-08-03T01:05:59.338Z,56.26
2018-08-03T01:11:03.306Z,56.67
2018-08-03T01:16:07.426Z,57.12
2018-08-03T01:21:11.019Z,57.66
2018-08-03T01:26:14.726Z,57.12
2018-08-03T01:31:18.223Z,56.98
2018-08-03T01:36:21.876Z,56.37
2018-08-03T01:41:26.010Z,56.25
2018-08-03T01:46:29.692Z,56.86
2018-08-03T01:51:33.227Z,57.44
2018-08-03T01:56:36.849Z,57.24
2018-08-03T02:01:40.384Z,56.97
2018-08-03T02:06:43.967Z,57.32
2018-08-03T02:11:47.474Z,58.33
2018-08-03T02:16:51.406Z,58.18
2018-08-03T02:21:55.146Z,57.24
2018-08-03T02:26:58.731Z,57.39
2018-08-03T02:32:02.514Z,56.81
2018-08-03T02:37:06.486Z,57.83
2018-08-03T02:42:10.002Z,57.87
2018-08-03T02:47:13.673Z,58.01
2018-08-03T02:52:17.165Z,58.92
2018-08-03T02:57:20.830Z,58.87
2018-08-03T03:02:24.331Z,58.88
2018-08-03T03:07:27.844Z,58.23
2018-08-03T03:12:31.430Z,57.68
2018-08-03T03:17:35.137Z,57.73
2018-08-03T03:22:38.650Z,57.58
2018-08-03T03:27:42.237Z,57.89
2018-08-03T03:32:46.469Z,56.91
2018-08-03T03:54:21.669Z,56.28
2018-08-03T03:59:27.766Z,55.49
2018-08-03T04:04:34.797Z,55.56
2018-08-03T04:09:39.365Z,55.61
2018-08-03T04:14:43.813Z,54.35
2018-08-03T04:19:47.516Z,55.87
2018-08-03T04:24:51.214Z,55.85
2018-08-03T04:29:55.202Z,56.59
2018-08-03T04:34:59.170Z,55.35
2018-08-03T04:56:25.910Z,52.67
2018-08-03T05:01:29.456Z,52.63
2018-08-03T05:06:33.157Z,52.17
2018-08-03T05:11:36.721Z,52.07
2018-08-03T05:16:41.064Z,51.57
2018-08-03T05:21:44.661Z,51.95
2018-08-03T05:26:48.221Z,50.97
2018-08-03T05:31:51.904Z,50.53
2018-08-03T05:36:55.596Z,50.87
2018-08-03T05:41:59.206Z,51.10
2018-08-03T05:47:03.025Z,50.40
2018-08-03T05:52:06.670Z,50.61
2018-08-03T05:57:10.190Z,49.87
2018-08-03T06:02:14.895Z,49.97
2018-08-03T06:07:18.701Z,50.19
2018-08-03T06:12:22.317Z,50.42
2018-08-03T06:17:26.421Z,50.35
2018-08-03T06:22:30.418Z,50.47
2018-08-03T06:27:34.394Z,50.76
2018-08-03T06:32:38.526Z,51.41
2018-08-03T06:37:43.170Z,51.34
2018-08-03T06:42:46.692Z,50.98
2018-08-03T06:47:50.282Z,52.00
2018-08-03T06:52:54.265Z,51.33
2018-08-03T06:57:57.793Z,51.33
2018-08-03T07:03:01.303Z,51.03
2018-08-03T07:08:05.035Z,50.98
2018-08-03T07:13:08.618Z,51.11
2018-08-03T07:18:12.202Z,50.17
2018-08-03T07:23:15.751Z,51.12
2018-08-03T07:28:19.958Z,50.73
2018-08-03T07:33:23.518Z,49.52
2018-08-03T07:38:27.198Z,50.48
2018-08-03T07:43:31.732Z,49.52
2018-08-03T07:48:36.322Z,49.28
2018-08-03T07:53:40.614Z,49.06
2018-08-03T07:58:45.625Z,48.81
2018-08-03T08:03:49.947Z,48.22
2018-08-03T08:08:54.512Z,48.07
2018-08-03T08:13:59.022Z,47.92
2018-08-03T08:19:04.377Z,47.78
2018-08-03T08:24:08.621Z,49.47
2018-08-03T08:29:13.487Z,50.02
2018-08-03T08:34:21.771Z,49.06
2018-08-03T08:39:26.410Z,47.27
2018-08-03T08:44:31.003Z,47.58
2018-08-03T08:49:35.539Z,46.55
2018-08-03T08:54:40.332Z,46.39
2018-08-03T08:59:45.447Z,46.20
2018-08-03T09:04:49.017Z,45.30
2018-08-03T09:09:52.763Z,44.08
2018-08-03T09:14:56.638Z,43.62
2018-08-03T09:20:06.288Z,43.43
2018-08-03T09:25:10.307Z,42.86
2018-08-03T09:30:14.121Z,42.49
2018-08-03T09:35:17.918Z,42.26
2018-08-03T09:40:21.487Z,42.01
2018-08-03T09:45:25.132Z,42.63
2018-08-03T09:50:29.019Z,41.22
2018-08-03T09:55:33.210Z,40.95
2018-08-03T10:00:42.504Z,40.56
2018-08-03T10:05:46.453Z,40.31
2018-08-03T10:10:50.204Z,38.71
2018-08-03T10:15:54.203Z,39.07
2018-08-03T10:20:59.400Z,38.26
2018-08-03T10:26:03.330Z,38.29
2018-08-03T10:31:07.998Z,37.86
2018-08-03T10:36:12.148Z,37.83
2018-08-03T10:41:16.220Z,36.85
2018-08-03T10:46:21.167Z,37.63
2018-08-03T10:51:25.662Z,36.16
2018-08-03T10:56:29.805Z,37.00
2018-08-03T11:01:34.246Z,36.20
2018-08-03T11:06:38.144Z,35.34
2018-08-03T11:11:42.398Z,35.60
2018-08-03T11:16:46.166Z,36.23
2018-08-03T11:21:50.458Z,35.39
2018-08-03T11:26:54.302Z,34.43
2018-08-03T11:31:58.435Z,35.62
2018-08-03T11:37:02.560Z,35.31
2018-08-03T11:42:07.535Z,34.14
2018-08-03T11:47:12.174Z,33.63
2018-08-03T11:52:16.553Z,33.00
2018-08-03T11:57:20.763Z,32.25
2018-08-03T12:02:24.582Z,23.05
2018-08-03T12:07:29.380Z,22.35
2018-08-03T12:12:33.996Z,21.61
2018-08-03T12:17:37.535Z,21.03
2018-08-03T12:22:41.855Z,22.89
2018-08-03T12:27:45.787Z,23.01
2018-08-03T12:32:49.916Z,23.10
2018-08-03T12:37:53.837Z,22.42
2018-08-03T12:42:57.954Z,21.46
2018-08-03T12:48:02.131Z,23.85
2018-08-03T12:53:06.721Z,24.15
2018-08-03T12:58:11.916Z,24.42
2018-08-03T13:03:15.990Z,24.82
2018-08-03T13:08:21.028Z,25.77
2018-08-03T13:13:24.870Z,25.68
2018-08-03T13:18:29.881Z,26.59
2018-08-03T13:23:33.801Z,27.24
2018-08-03T13:28:38.637Z,27.25
2018-08-03T13:33:42.648Z,28.01
2018-08-03T13:38:47.945Z,28.63
2018-08-03T13:43:52.333Z,28.85
2018-08-03T13:48:56.302Z,29.26
2018-08-03T13:54:01.515Z,28.80
2018-08-03T13:59:06.901Z,28.46
2018-08-03T14:04:11.614Z,27.92
2018-08-03T14:09:16.275Z,29.55
2018-08-03T14:14:22.176Z,29.52
2018-08-03T14:19:26.773Z,30.31
2018-08-03T14:24:31.858Z,30.87
2018-08-03T14:29:36.995Z,31.10
2018-08-03T14:34:41.258Z,30.68
2018-08-03T14:39:45.534Z,29.08
2018-08-03T14:44:53.175Z,29.71
2018-08-03T14:49:57.722Z,28.26
2018-08-03T14:55:04.824Z,28.95
2018-08-03T15:00:08.726Z,28.98
2018-08-03T15:05:13.313Z,28.77
2018-08-03T15:10:17.886Z,28.95
2018-08-03T15:15:22.295Z,27.87
2018-08-03T15:20:27.256Z,28.79
2018-08-03T15:25:31.713Z,29.60
2018-08-03T15:30:35.971Z,30.12
2018-08-03T15:35:41.180Z,29.21
2018-08-03T15:40:45.733Z,27.10
2018-08-03T15:45:50.079Z,25.63
2018-08-03T15:50:56.211Z,25.48
2018-08-03T15:56:00.287Z,25.05
2018-08-03T16:01:04.617Z,24.45
2018-08-03T16:06:08.902Z,22.58
2018-08-03T16:11:13.628Z,20.26
2018-08-03T16:16:18.172Z,18.48
2018-08-03T16:21:21.927Z,20.75
2018-08-03T16:26:26.050Z,25.19
2018-08-03T16:31:29.845Z,27.52
2018-08-03T16:36:33.852Z,24.06
2018-08-03T16:41:38.006Z,25.53
2018-08-03T16:46:43.755Z,25.71
2018-08-03T16:51:49.200Z,24.81
2018-08-03T16:56:53.485Z,27.20
2018-08-03T17:01:57.968Z,24.76
2018-08-03T17:07:02.186Z,25.89
2018-08-03T17:12:06.289Z,26.32
2018-08-03T17:17:10.358Z,27.29
2018-08-03T17:22:14.455Z,27.03
2018-08-03T17:27:18.984Z,26.28
2018-08-03T17:32:23.123Z,26.62
2018-08-03T17:37:27.052Z,27.10
2018-08-03T17:42:31.818Z,27.36
2018-08-03T17:47:35.827Z,24.96
2018-08-03T17:52:39.758Z,26.84
2018-08-03T17:57:43.926Z,29.25
2018-08-03T18:02:48.161Z,30.28
2018-08-03T18:07:52.290Z,30.79
2018-08-03T18:12:56.757Z,31.70
2018-08-03T18:18:00.796Z,33.26
2018-08-03T18:23:04.942Z,33.32
2018-08-03T18:28:08.883Z,33.63
2018-08-03T18:33:12.999Z,34.32
2018-08-03T18:38:17.092Z,35.38
2018-08-03T18:43:21.986Z,35.88
2018-08-03T18:48:25.962Z,36.61
2018-08-03T18:53:30.722Z,37.06
2018-08-03T18:58:34.670Z,38.32
2018-08-03T19:03:39.354Z,39.06
2018-08-03T19:08:43.595Z,39.63
2018-08-03T19:13:47.893Z,40.43
2018-08-03T19:18:51.919Z,40.81
2018-08-03T19:23:55.763Z,41.44
2018-08-03T19:29:00.126Z,42.61
2018-08-03T19:34:04.420Z,43.29
2018-08-03T19:39:09.926Z,43.80
2018-08-03T19:44:14.464Z,43.83
2018-08-03T19:49:17.965Z,43.42
2018-08-03T19:54:22.746Z,43.79
2018-08-03T19:59:26.971Z,44.80
2018-08-03T20:04:30.853Z,44.24
2018-08-03T20:09:34.365Z,44.13
2018-08-03T20:14:38.028Z,45.04
2018-08-03T20:19:41.661Z,44.88
2018-08-03T20:24:46.983Z,46.55
2018-08-03T20:29:51.129Z,46.90
2018-08-03T20:34:54.741Z,46.86
2018-08-03T20:39:58.325Z,47.17
2018-08-03T20:45:02.617Z,47.27
2018-08-03T20:50:06.392Z,47.82
2018-08-03T20:55:10.556Z,47.96
2018-08-03T21:00:14.302Z,47.98
2018-08-03T21:05:17.981Z,47.97
2018-08-03T21:10:22.035Z,49.37
2018-08-03T21:15:25.985Z,49.33
2018-08-03T21:20:29.908Z,49.78
2018-08-03T21:25:33.656Z,50.30
2018-08-03T21:30:37.259Z,50.85
2018-08-03T21:35:41.102Z,49.05
2018-08-03T21:40:45.421Z,47.50
2018-08-03T21:45:49.148Z,47.53
2018-08-03T21:50:52.942Z,48.06
2018-08-03T21:55:56.625Z,48.02
2018-08-03T22:01:00.671Z,46.78
2018-08-03T22:06:04.464Z,47.13
2018-08-03T22:11:08.078Z,47.18
2018-08-03T22:16:11.703Z,48.04
2018-08-03T22:21:15.233Z,47.76
2018-08-03T22:26:18.774Z,47.19
2018-08-03T22:31:22.349Z,46.37
2018-08-03T22:36:25.921Z,45.97
2018-08-03T22:41:29.486Z,45.87
2018-08-03T22:46:33.680Z,45.16
2018-08-03T22:51:37.269Z,45.40
2018-08-03T22:56:41.167Z,45.00
2018-08-03T23:01:44.770Z,44.82
2018-08-03T23:06:48.674Z,44.60
2018-08-03T23:11:52.529Z,44.30
2018-08-03T23:16:56.523Z,44.29
2018-08-03T23:22:00.442Z,44.29
2018-08-03T23:27:04.554Z,44.29
2018-08-03T23:32:08.259Z,43.66
2018-08-03T23:37:12.213Z,44.21
2018-08-03T23:42:16.887Z,44.11
2018-08-03T23:47:21.101Z,43.53
2018-08-03T23:52:25.109Z,43.98
2018-08-03T23:57:29.208Z,44.29
